Time;durP1;ratioP1;P1;durP2;ratioP2;P2;SDS_P1;SDS_P2;PMS_P1;PMS_P2;Temp;Humidity;BMP_temperature;BMP_pressure;BME280_temperature;BME280_humidity;BME280_pressure;Samples;Min_cycle;Max_cycle;Signal;HPM_P1;HPM_P2
2023/03/13 00:02:22;;;;;;;27.97;8.60;;;6.20;99.90;;;;;;4988066;28;20605;-79
2023/03/13 00:04:49;;;;;;;28.70;8.47;;;6.20;99.90;;;;;;4987064;28;20233;-79
2023/03/13 00:07:16;;;;;;;22.83;7.90;;;6.20;99.90;;;;;;4990460;28;20269;-79
2023/03/13 00:09:42;;;;;;;23.13;7.87;;;6.20;99.90;;;;;;4991890;28;20228;-79
2023/03/13 00:12:10;;;;;;;27.00;8.70;;;6.20;99.90;;;;;;4984313;28;20233;-79
2023/03/13 00:14:37;;;;;;;21.67;8.20;;;6.30;99.90;;;;;;4989258;28;20237;-79
2023/03/13 00:17:04;;;;;;;22.00;7.20;;;6.30;99.90;;;;;;4990957;28;20246;-79
2023/03/13 00:19:31;;;;;;;21.07;8.10;;;6.30;99.90;;;;;;4987334;28;20235;-79
2023/03/13 00:21:58;;;;;;;29.70;7.37;;;6.30;99.90;;;;;;4979688;28;20249;-78
2023/03/13 00:24:25;;;;;;;23.23;7.33;;;6.30;99.90;;;;;;4992709;28;20336;-79
2023/03/13 00:26:52;;;;;;;28.17;7.17;;;6.30;99.90;;;;;;4988113;28;20257;-79
2023/03/13 00:29:20;;;;;;;25.10;7.23;;;6.30;99.90;;;;;;4989632;28;20396;-79
2023/03/13 00:31:47;;;;;;;24.57;7.87;;;6.20;99.90;;;;;;4991630;28;20327;-78
2023/03/13 00:34:13;;;;;;;20.23;6.93;;;6.20;99.90;;;;;;4980803;28;20234;-79
2023/03/13 00:36:40;;;;;;;26.90;7.10;;;6.20;99.90;;;;;;4983719;28;20322;-79
2023/03/13 00:39:07;;;;;;;20.00;6.97;;;6.20;99.90;;;;;;4986265;28;20314;-78
2023/03/13 00:41:37;;;;;;;21.53;7.50;;;6.20;99.90;;;;;;4993897;28;20767;-79
2023/03/13 00:44:05;;;;;;;25.47;7.13;;;6.20;99.90;;;;;;4992299;28;20288;-78
2023/03/13 00:46:33;;;;;;;23.13;7.00;;;6.10;99.90;;;;;;4999260;28;20318;-78
2023/03/13 00:48:59;;;;;;;28.60;7.93;;;6.10;99.90;;;;;;4984213;28;20214;-78
2023/03/13 00:51:28;;;;;;;21.87;7.50;;;6.10;99.90;;;;;;4983900;28;20857;-78
2023/03/13 00:53:56;;;;;;;27.40;7.40;;;6.10;99.90;;;;;;4987863;28;20764;-78
2023/03/13 00:56:23;;;;;;;24.30;7.97;;;6.10;99.90;;;;;;4987506;28;20224;-78
2023/03/13 00:58:50;;;;;;;26.87;6.70;;;6.10;99.90;;;;;;4986259;28;20225;-78
2023/03/13 01:01:19;;;;;;;25.13;7.87;;;6.10;99.90;;;;;;4980975;28;20599;-79
2023/03/13 01:03:49;;;;;;;26.23;6.97;;;6.10;99.90;;;;;;4985235;28;20235;-78
2023/03/13 01:06:18;;;;;;;25.20;7.97;;;6.00;99.90;;;;;;5000328;28;20318;-78
2023/03/13 01:08:45;;;;;;;29.67;9.17;;;6.00;99.90;;;;;;4988544;28;20724;-78
2023/03/13 01:11:14;;;;;;;27.07;7.23;;;6.00;99.90;;;;;;4983948;28;20232;-78
2023/03/13 01:13:41;;;;;;;23.57;8.00;;;6.00;99.90;;;;;;4985763;28;20230;-78
2023/03/13 01:16:10;;;;;;;24.87;7.23;;;6.00;99.90;;;;;;4982186;28;20234;-77
2023/03/13 01:18:39;;;;;;;21.80;7.20;;;6.00;99.90;;;;;;4986895;28;20311;-78
2023/03/13 01:21:07;;;;;;;31.23;8.03;;;6.00;99.90;;;;;;4982971;28;20222;-78
2023/03/13 01:23:35;;;;;;;22.83;7.43;;;6.00;99.90;;;;;;4985465;28;20810;-78
2023/03/13 01:26:05;;;;;;;23.23;7.33;;;6.00;99.90;;;;;;4986915;28;20808;-78
2023/03/13 01:28:33;;;;;;;29.87;8.17;;;6.00;99.90;;;;;;4988685;28;20333;-79
2023/03/13 01:31:01;;;;;;;25.93;7.80;;;6.00;99.90;;;;;;4998390;28;20224;-78
2023/03/13 01:33:28;;;;;;;22.87;7.27;;;6.00;99.90;;;;;;4986724;28;20273;-79
2023/03/13 01:36:01;;;;;;;27.80;7.07;;;6.00;99.90;;;;;;4986265;28;20233;-79
2023/03/13 01:38:29;;;;;;;30.10;7.83;;;6.00;99.90;;;;;;4981651;28;20845;-79
2023/03/13 01:40:56;;;;;;;21.30;6.77;;;6.00;99.90;;;;;;4986476;28;20732;-78
2023/03/13 01:43:25;;;;;;;26.60;8.00;;;6.00;99.90;;;;;;4991195;28;20227;-78
2023/03/13 01:46:01;;;;;;;22.90;7.47;;;6.00;99.90;;;;;;4990315;28;20255;-78
2023/03/13 01:48:40;;;;;;;25.10;7.63;;;6.00;99.90;;;;;;4991201;28;20647;-78
2023/03/13 01:51:10;;;;;;;27.80;8.27;;;6.00;99.90;;;;;;4997152;28;20230;-78
2023/03/13 01:53:43;;;;;;;30.43;7.77;;;6.00;99.90;;;;;;4988458;28;20245;-79
2023/03/13 01:56:15;;;;;;;26.70;7.73;;;6.00;99.90;;;;;;5001977;28;20237;-79
2023/03/13 01:58:42;;;;;;;25.23;8.37;;;6.00;99.90;;;;;;4980576;28;20219;-78
2023/03/13 02:01:09;;;;;;;27.50;8.43;;;6.00;99.90;;;;;;4983608;28;20241;-79
2023/03/13 02:03:37;;;;;;;25.80;7.40;;;6.10;99.90;;;;;;5002192;28;20226;-78
2023/03/13 02:06:06;;;;;;;25.17;7.70;;;6.10;99.90;;;;;;4988757;28;20268;-78
2023/03/13 02:08:38;;;;;;;27.27;7.53;;;6.10;99.90;;;;;;4985305;28;20226;-78
2023/03/13 02:11:15;;;;;;;24.87;7.80;;;6.10;99.90;;;;;;4981534;28;20246;-78
2023/03/13 02:13:43;;;;;;;36.23;8.03;;;6.10;99.90;;;;;;4984824;28;20304;-79
2023/03/13 02:16:11;;;;;;;27.37;7.37;;;6.10;99.90;;;;;;4981586;28;20714;-78
2023/03/13 02:18:38;;;;;;;29.77;8.40;;;6.10;99.90;;;;;;4983541;28;20917;-78
2023/03/13 02:21:11;;;;;;;24.83;7.20;;;6.10;99.90;;;;;;4978996;28;20253;-78
2023/03/13 02:23:48;;;;;;;22.00;7.83;;;6.10;99.90;;;;;;4982347;28;20718;-78
2023/03/13 02:26:16;;;;;;;25.83;8.37;;;6.10;99.90;;;;;;4978546;28;20661;-76
2023/03/13 02:28:43;;;;;;;27.93;8.23;;;6.10;99.90;;;;;;4977350;28;20230;-77
2023/03/13 02:31:13;;;;;;;31.43;8.40;;;6.00;99.90;;;;;;4985320;28;20309;-77
2023/03/13 02:33:42;;;;;;;21.50;7.23;;;6.00;99.90;;;;;;4985635;28;20233;-77
2023/03/13 02:36:14;;;;;;;27.13;7.23;;;6.10;99.90;;;;;;4981656;28;20229;-78
2023/03/13 02:38:48;;;;;;;27.53;7.50;;;6.00;99.90;;;;;;4985774;28;20226;-77
2023/03/13 02:41:18;;;;;;;32.43;8.17;;;6.00;99.90;;;;;;4981732;28;20765;-77
2023/03/13 02:43:45;;;;;;;28.40;7.53;;;6.10;99.90;;;;;;4999206;28;20325;-78
2023/03/13 02:46:14;;;;;;;31.70;8.07;;;6.00;99.90;;;;;;4981693;28;20229;-77
2023/03/13 02:48:47;;;;;;;27.33;7.57;;;6.00;99.90;;;;;;4980141;28;20774;-77
2023/03/13 02:51:18;;;;;;;30.17;7.90;;;6.00;99.90;;;;;;4984009;28;20237;-77
2023/03/13 02:53:48;;;;;;;28.63;7.80;;;6.00;99.90;;;;;;5003495;28;20230;-77
2023/03/13 02:56:19;;;;;;;34.57;8.70;;;6.00;99.90;;;;;;4996462;28;20227;-78
2023/03/13 02:58:47;;;;;;;22.43;7.60;;;6.00;99.90;;;;;;4982121;28;20237;-77
2023/03/13 03:01:13;;;;;;;29.93;7.77;;;6.00;99.90;;;;;;4983737;28;20314;-77
2023/03/13 03:03:42;;;;;;;27.17;7.13;;;6.00;99.90;;;;;;4981362;28;20281;-78
2023/03/13 03:06:09;;;;;;;28.80;7.57;;;6.00;99.90;;;;;;4996523;28;20289;-78
2023/03/13 03:08:36;;;;;;;30.70;7.67;;;6.00;99.90;;;;;;4984443;28;20231;-78
2023/03/13 03:11:05;;;;;;;28.17;7.90;;;6.00;99.90;;;;;;4998223;28;20226;-78
2023/03/13 03:13:33;;;;;;;25.93;7.63;;;6.00;99.90;;;;;;4999731;28;20236;-78
2023/03/13 03:16:06;;;;;;;27.40;7.43;;;6.00;99.90;;;;;;4993739;28;20591;-78
2023/03/13 03:18:32;;;;;;;25.13;7.70;;;6.00;99.90;;;;;;4989278;28;20310;-78
2023/03/13 03:20:59;;;;;;;22.33;6.77;;;6.00;99.90;;;;;;4990696;28;20221;-78
2023/03/13 03:23:26;;;;;;;27.43;7.40;;;6.00;99.90;;;;;;4981434;28;20310;-78
2023/03/13 03:25:53;;;;;;;22.27;6.50;;;5.90;99.90;;;;;;4987980;28;20222;-79
2023/03/13 03:28:20;;;;;;;25.60;7.57;;;6.00;99.90;;;;;;4985115;28;20886;-78
2023/03/13 03:30:48;;;;;;;26.83;7.13;;;6.00;99.90;;;;;;5002142;28;21339;-78
2023/03/13 03:33:15;;;;;;;26.47;6.20;;;6.00;99.90;;;;;;4983823;28;20229;-78
2023/03/13 03:35:42;;;;;;;24.23;6.70;;;6.00;99.90;;;;;;4985507;28;20243;-78
2023/03/13 03:38:10;;;;;;;26.70;6.97;;;6.00;99.90;;;;;;4983708;28;20234;-78
2023/03/13 03:40:37;;;;;;;24.87;6.50;;;6.00;99.90;;;;;;4986003;28;20215;-77
2023/03/13 03:43:03;;;;;;;24.57;6.33;;;6.00;99.90;;;;;;4978863;28;20316;-78
2023/03/13 03:45:30;;;;;;;28.07;6.77;;;6.00;99.90;;;;;;4977262;28;20233;-78
2023/03/13 03:47:59;;;;;;;26.50;6.90;;;6.00;99.90;;;;;;4987319;28;20216;-78
2023/03/13 03:50:26;;;;;;;28.60;6.60;;;6.00;99.90;;;;;;4983497;28;20258;-79
2023/03/13 03:52:58;;;;;;;28.77;6.70;;;6.00;99.90;;;;;;4984477;28;20307;-79
2023/03/13 03:55:26;;;;;;;21.00;6.57;;;6.00;99.90;;;;;;4983589;28;20229;-78
2023/03/13 03:57:53;;;;;;;23.30;6.50;;;6.00;99.90;;;;;;4981666;28;20273;-78
2023/03/13 04:00:35;;;;;;;28.67;6.93;;;6.00;99.90;;;;;;4985104;28;20225;-78
2023/03/13 04:03:03;;;;;;;28.10;6.73;;;6.10;99.90;;;;;;4978481;28;20218;-78
2023/03/13 04:05:30;;;;;;;26.70;6.03;;;6.00;99.90;;;;;;4982344;28;20221;-78
2023/03/13 04:07:58;;;;;;;24.97;6.03;;;6.10;99.90;;;;;;4979307;28;20361;-78
2023/03/13 04:10:25;;;;;;;28.37;6.47;;;6.10;99.90;;;;;;4982669;28;20678;-78
2023/03/13 04:12:52;;;;;;;30.03;6.87;;;6.10;99.90;;;;;;4980147;28;20221;-78
2023/03/13 04:15:19;;;;;;;25.10;6.63;;;6.00;99.90;;;;;;4981931;28;20220;-78
2023/03/13 04:17:46;;;;;;;21.07;6.20;;;6.00;99.90;;;;;;4981957;28;20253;-78
2023/03/13 04:20:16;;;;;;;19.03;5.43;;;6.00;99.90;;;;;;4977647;28;20599;-78
2023/03/13 04:22:43;;;;;;;26.43;6.50;;;6.00;99.90;;;;;;4980437;28;20279;-78
2023/03/13 04:25:11;;;;;;;20.90;5.70;;;6.10;99.90;;;;;;4988658;28;20241;-78
2023/03/13 04:27:37;;;;;;;21.60;5.03;;;6.00;99.90;;;;;;4979203;28;20237;-78
2023/03/13 04:30:06;;;;;;;24.47;6.00;;;6.10;99.90;;;;;;4995278;28;20214;-77
2023/03/13 04:32:42;;;;;;;25.00;6.07;;;6.00;99.90;;;;;;4982412;28;20607;-78
2023/03/13 04:35:24;;;;;;;28.10;6.77;;;6.10;99.90;;;;;;4996212;28;20228;-78
2023/03/13 04:38:10;;;;;;;25.20;5.87;;;6.10;99.90;;;;;;4981008;28;20726;-77
2023/03/13 04:41:04;;;;;;;28.10;6.13;;;6.10;99.90;;;;;;4979160;28;20289;-77
2023/03/13 04:43:40;;;;;;;25.10;6.53;;;6.00;99.90;;;;;;4990392;28;20760;-77
2023/03/13 04:46:14;;;;;;;34.93;6.37;;;6.10;99.90;;;;;;4979666;28;20247;-77
2023/03/13 04:48:59;;;;;;;22.57;5.53;;;6.00;99.90;;;;;;4982605;28;20229;-78
2023/03/13 04:51:47;;;;;;;22.37;6.17;;;6.00;99.90;;;;;;4983757;28;20238;-77
2023/03/13 04:54:40;;;;;;;22.73;6.07;;;6.00;99.90;;;;;;4983807;28;20222;-77
2023/03/13 04:57:33;;;;;;;23.93;5.97;;;6.00;99.90;;;;;;4982888;28;20266;-77
2023/03/13 05:00:14;;;;;;;24.97;5.80;;;6.00;99.90;;;;;;4987997;28;20222;-77
2023/03/13 05:02:47;;;;;;;18.03;5.00;;;5.90;99.90;;;;;;4986283;28;20218;-77
2023/03/13 05:05:26;;;;;;;24.13;5.97;;;6.00;99.90;;;;;;4984463;28;21008;-77
2023/03/13 05:08:13;;;;;;;16.63;5.40;;;6.00;99.90;;;;;;4981987;28;20229;-77
2023/03/13 05:10:53;;;;;;;21.23;5.80;;;6.00;99.90;;;;;;4985118;28;20221;-77
2023/03/13 05:13:31;;;;;;;24.97;5.83;;;6.00;99.90;;;;;;4988279;28;20597;-77
2023/03/13 05:16:18;;;;;;;24.77;5.30;;;6.00;99.90;;;;;;4998129;28;20247;-78
2023/03/13 05:19:04;;;;;;;22.80;5.47;;;6.00;99.90;;;;;;4984390;28;20276;-76
2023/03/13 05:22:00;;;;;;;22.67;5.20;;;6.00;99.90;;;;;;4930786;28;20213;-76
2023/03/13 05:24:46;;;;;;;19.63;4.83;;;6.00;99.90;;;;;;4981399;28;20222;-77
2023/03/13 05:27:36;;;;;;;20.43;5.70;;;6.00;99.90;;;;;;4962974;28;20749;-78
2023/03/13 05:30:33;;;;;;;28.07;5.40;;;6.00;99.90;;;;;;4983977;28;20235;-78
2023/03/13 05:33:18;;;;;;;18.27;5.17;;;6.00;99.90;;;;;;4980952;28;20222;-78
2023/03/13 05:36:11;;;;;;;18.70;5.50;;;6.00;99.90;;;;;;4983118;28;20252;-77
2023/03/13 05:38:37;;;;;;;18.20;4.87;;;6.00;99.90;;;;;;4986574;28;20229;-78
2023/03/13 05:41:24;;;;;;;21.73;5.43;;;6.10;99.90;;;;;;4987140;28;20226;-78
2023/03/13 05:44:10;;;;;;;19.63;5.43;;;6.10;99.90;;;;;;4979405;28;20327;-80
2023/03/13 05:46:55;;;;;;;22.03;4.97;;;6.10;99.90;;;;;;4978888;28;20237;-79
2023/03/13 05:49:40;;;;;;;26.63;6.40;;;6.10;99.90;;;;;;4986855;28;20229;-80
2023/03/13 05:52:28;;;;;;;17.13;4.30;;;6.10;99.90;;;;;;4987516;28;20288;-79
2023/03/13 05:55:14;;;;;;;18.27;5.33;;;6.10;99.90;;;;;;4971668;28;20307;-79
2023/03/13 05:57:48;;;;;;;21.67;5.87;;;6.10;99.90;;;;;;4970246;28;20259;-79
2023/03/13 06:00:42;;;;;;;19.63;5.23;;;6.10;99.90;;;;;;4989422;28;20237;-79
2023/03/13 06:03:28;;;;;;;14.77;4.43;;;6.10;99.90;;;;;;4987736;28;20284;-78
2023/03/13 06:05:58;;;;;;;16.73;5.03;;;6.10;99.90;;;;;;4977281;28;21334;-79
2023/03/13 06:08:43;;;;;;;12.80;4.10;;;6.20;99.90;;;;;;4973373;28;20219;-79
2023/03/13 06:11:10;;;;;;;16.10;4.80;;;6.10;99.90;;;;;;4987926;28;20222;-78
2023/03/13 06:13:39;;;;;;;12.00;4.10;;;6.10;99.90;;;;;;4989244;28;20227;-80
2023/03/13 06:16:21;;;;;;;19.40;4.47;;;6.10;99.90;;;;;;4988874;28;20768;-79
2023/03/13 06:18:49;;;;;;;16.23;4.83;;;6.20;99.90;;;;;;4972333;28;20230;-80
2023/03/13 06:21:16;;;;;;;11.70;3.93;;;6.20;99.90;;;;;;4988436;28;20297;-80
2023/03/13 06:23:43;;;;;;;7.87;3.57;;;6.20;99.90;;;;;;4989197;28;20227;-79
2023/03/13 06:26:10;;;;;;;11.87;3.97;;;6.10;99.90;;;;;;4990958;28;20253;-80
2023/03/13 06:28:38;;;;;;;11.77;3.70;;;6.20;99.90;;;;;;4992338;28;20288;-80
2023/03/13 06:31:07;;;;;;;9.90;2.97;;;6.30;99.90;;;;;;4986383;28;20223;-81
2023/03/13 06:33:34;;;;;;;10.17;3.43;;;6.30;99.90;;;;;;4987276;28;20400;-82
2023/03/13 06:36:02;;;;;;;6.27;2.60;;;6.20;99.90;;;;;;4980714;28;20230;-81
2023/03/13 06:38:30;;;;;;;8.87;3.30;;;6.30;99.90;;;;;;4985393;28;20225;-81
2023/03/13 06:40:57;;;;;;;9.33;2.90;;;6.30;99.90;;;;;;4990640;28;20264;-80
2023/03/13 06:43:24;;;;;;;11.30;2.50;;;6.30;99.90;;;;;;4985762;28;20230;-80
2023/03/13 06:45:52;;;;;;;8.00;2.67;;;6.40;99.90;;;;;;4990415;28;20222;-80
2023/03/13 06:48:21;;;;;;;4.70;2.20;;;6.50;99.90;;;;;;4993829;28;20235;-81
2023/03/13 06:50:49;;;;;;;7.10;2.47;;;6.50;99.90;;;;;;4989077;28;20256;-80
2023/03/13 06:53:17;;;;;;;6.37;2.10;;;6.50;99.90;;;;;;4980530;28;20759;-80
2023/03/13 06:55:43;;;;;;;5.10;2.10;;;6.60;99.90;;;;;;4987268;28;20227;-80
2023/03/13 06:58:10;;;;;;;5.07;2.33;;;6.60;99.90;;;;;;4987635;28;20240;-80
2023/03/13 07:00:38;;;;;;;4.90;1.90;;;6.60;99.90;;;;;;4985518;28;20227;-80
2023/03/13 07:03:06;;;;;;;4.80;2.00;;;6.70;99.90;;;;;;4970431;28;20953;-80
2023/03/13 07:05:33;;;;;;;5.87;2.27;;;6.70;99.90;;;;;;4985665;28;20265;-80
2023/03/13 07:08:00;;;;;;;4.87;2.57;;;6.70;99.90;;;;;;4988420;28;20228;-80
2023/03/13 07:10:26;;;;;;;6.23;2.23;;;6.70;99.90;;;;;;5007867;28;20589;-81
2023/03/13 07:12:53;;;;;;;3.93;1.97;;;6.80;99.90;;;;;;5013297;28;20235;-80
2023/03/13 07:15:20;;;;;;;4.23;2.20;;;6.90;99.90;;;;;;5008561;28;20233;-81
2023/03/13 07:17:46;;;;;;;4.20;2.10;;;6.90;99.90;;;;;;4993901;28;20214;-79
2023/03/13 07:20:14;;;;;;;5.10;2.27;;;7.00;99.90;;;;;;5008075;28;20249;-80
2023/03/13 07:22:41;;;;;;;5.53;2.23;;;7.00;99.90;;;;;;4997523;28;20555;-80
2023/03/13 07:25:09;;;;;;;7.23;2.50;;;7.10;99.90;;;;;;4990579;28;20235;-80
2023/03/13 07:27:37;;;;;;;5.70;1.97;;;7.10;99.90;;;;;;4994125;28;21048;-79
2023/03/13 07:30:04;;;;;;;5.27;2.17;;;7.20;99.90;;;;;;4990908;28;20224;-80
2023/03/13 07:32:32;;;;;;;4.60;2.50;;;7.20;99.90;;;;;;4988695;28;20239;-81
2023/03/13 07:34:59;;;;;;;6.20;2.07;;;7.30;99.90;;;;;;4989046;28;20324;-81
2023/03/13 07:37:27;;;;;;;5.57;2.33;;;7.30;99.90;;;;;;4985399;28;20314;-81
2023/03/13 07:39:54;;;;;;;9.80;2.43;;;7.30;99.90;;;;;;4994016;28;20234;-81
2023/03/13 07:42:20;;;;;;;5.40;2.47;;;7.40;99.90;;;;;;5005461;28;20266;-81
2023/03/13 07:44:47;;;;;;;4.97;2.13;;;7.40;99.90;;;;;;5002233;28;20536;-80
2023/03/13 07:47:14;;;;;;;29.73;3.77;;;7.40;99.90;;;;;;4992840;28;20592;-81
2023/03/13 07:49:42;;;;;;;8.63;2.30;;;7.50;99.90;;;;;;4995026;28;20230;-81
2023/03/13 07:52:09;;;;;;;6.83;2.50;;;7.50;99.90;;;;;;4993665;28;20232;-82
2023/03/13 07:54:37;;;;;;;5.20;2.47;;;7.60;99.90;;;;;;5001171;28;20228;-80
2023/03/13 07:57:04;;;;;;;15.27;3.07;;;7.60;99.90;;;;;;4987351;28;20224;-81
2023/03/13 07:59:31;;;;;;;7.37;2.50;;;7.70;99.90;;;;;;4996866;28;20231;-81
2023/03/13 08:01:57;;;;;;;6.07;2.47;;;7.70;99.90;;;;;;4987608;28;20259;-81
2023/03/13 08:04:24;;;;;;;6.20;2.80;;;7.80;99.90;;;;;;4989219;28;20232;-80
2023/03/13 08:06:53;;;;;;;5.87;2.43;;;7.80;99.90;;;;;;4994211;28;20602;-80
2023/03/13 08:09:20;;;;;;;4.13;2.80;;;7.80;99.90;;;;;;4984128;28;20258;-79
2023/03/13 08:11:48;;;;;;;6.43;3.07;;;7.80;99.90;;;;;;4980939;28;20219;-79
2023/03/13 08:14:15;;;;;;;6.90;2.67;;;7.90;99.90;;;;;;4984287;28;20224;-79
2023/03/13 08:16:41;;;;;;;7.07;2.70;;;7.90;99.90;;;;;;4988089;28;20560;-79
2023/03/13 08:19:08;;;;;;;8.23;2.90;;;8.00;99.90;;;;;;4986234;28;20964;-79
2023/03/13 08:21:36;;;;;;;5.67;3.03;;;8.00;99.90;;;;;;4997160;28;20214;-79
2023/03/13 08:24:05;;;;;;;4.90;2.80;;;8.10;99.90;;;;;;4983699;28;20236;-79
2023/03/13 08:26:34;;;;;;;3.60;2.80;;;8.20;99.90;;;;;;4987995;28;20312;-80
2023/03/13 08:29:04;;;;;;;5.43;3.00;;;8.20;99.90;;;;;;4990159;28;20309;-79
2023/03/13 08:31:32;;;;;;;8.10;2.90;;;8.30;99.90;;;;;;4995416;28;20230;-79
2023/03/13 08:33:59;;;;;;;4.13;3.43;;;8.30;99.90;;;;;;4988931;28;20232;-79
2023/03/13 08:36:28;;;;;;;4.67;3.27;;;8.40;99.90;;;;;;4985415;28;20227;-79
2023/03/13 08:38:58;;;;;;;4.10;3.00;;;8.50;99.90;;;;;;4991913;28;20220;-79
2023/03/13 08:41:28;;;;;;;4.13;3.07;;;8.50;99.90;;;;;;4984173;28;20222;-79
2023/03/13 08:43:55;;;;;;;3.73;3.00;;;8.70;99.90;;;;;;4991500;28;20323;-79
2023/03/13 08:46:25;;;;;;;5.23;2.87;;;8.70;99.90;;;;;;4986632;28;20231;-79
2023/03/13 08:48:52;;;;;;;4.33;3.10;;;8.80;99.90;;;;;;4999744;28;20251;-79
2023/03/13 08:51:20;;;;;;;5.17;3.47;;;8.90;99.90;;;;;;4997014;28;20232;-80
2023/03/13 08:53:48;;;;;;;5.23;3.43;;;9.00;99.90;;;;;;4989537;28;20235;-79
2023/03/13 08:56:17;;;;;;;4.70;3.20;;;9.10;99.90;;;;;;4985495;28;20226;-80
2023/03/13 08:58:44;;;;;;;5.87;4.80;;;9.10;99.90;;;;;;4989931;28;20234;-79
2023/03/13 09:01:12;;;;;;;5.37;4.87;;;9.20;99.90;;;;;;4987670;28;20231;-79
2023/03/13 09:03:42;;;;;;;5.93;4.80;;;9.30;99.90;;;;;;4992124;28;20232;-80
2023/03/13 09:06:10;;;;;;;6.33;4.53;;;9.40;99.90;;;;;;4989768;28;20292;-79
2023/03/13 09:08:38;;;;;;;7.23;4.83;;;9.40;99.90;;;;;;4993991;28;20843;-79
2023/03/13 09:11:07;;;;;;;5.57;4.77;;;9.50;99.90;;;;;;4989325;28;20310;-80
2023/03/13 09:13:35;;;;;;;6.03;4.57;;;9.60;99.90;;;;;;4995852;28;20260;-79
2023/03/13 09:16:04;;;;;;;5.47;4.37;;;9.60;99.90;;;;;;4995065;28;20222;-80
2023/03/13 09:18:31;;;;;;;5.23;4.00;;;9.70;99.90;;;;;;4999089;28;20224;-79
2023/03/13 09:20:59;;;;;;;9.77;4.50;;;9.80;99.90;;;;;;4996661;28;20225;-80
2023/03/13 09:23:25;;;;;;;5.30;4.23;;;9.90;99.90;;;;;;4989667;28;20221;-80
2023/03/13 09:25:54;;;;;;;5.90;4.57;;;9.90;99.90;;;;;;4986873;28;20236;-79
2023/03/13 09:28:20;;;;;;;6.70;4.50;;;10.00;99.90;;;;;;4986479;28;20229;-79
2023/03/13 09:30:48;;;;;;;4.77;4.27;;;10.10;99.90;;;;;;4993885;28;20232;-79
2023/03/13 09:33:15;;;;;;;5.27;4.27;;;10.10;99.90;;;;;;4983724;28;20249;-79
2023/03/13 09:35:42;;;;;;;5.57;4.37;;;10.20;99.90;;;;;;4989299;28;20236;-80
2023/03/13 09:38:10;;;;;;;5.73;4.07;;;10.20;99.90;;;;;;4983646;28;20234;-80
2023/03/13 09:40:40;;;;;;;5.53;4.20;;;10.30;99.90;;;;;;4990606;28;20233;-80
2023/03/13 09:43:18;;;;;;;8.17;4.73;;;10.30;99.90;;;;;;4993310;28;20233;-79
2023/03/13 09:45:47;;;;;;;5.77;4.57;;;10.40;99.90;;;;;;4993261;28;20233;-80
2023/03/13 09:48:23;;;;;;;7.77;4.87;;;10.40;99.90;;;;;;4984906;28;20226;-80
2023/03/13 09:50:59;;;;;;;5.07;3.73;;;10.50;99.90;;;;;;4988569;28;20232;-80
2023/03/13 09:53:34;;;;;;;6.53;4.60;;;10.50;99.90;;;;;;4996593;28;20232;-80
2023/03/13 09:56:05;;;;;;;4.43;4.00;;;10.60;99.90;;;;;;4989505;28;20726;-80
2023/03/13 09:58:34;;;;;;;5.80;4.40;;;10.60;99.90;;;;;;4983977;28;20789;-79
2023/03/13 10:01:03;;;;;;;5.10;4.43;;;10.60;99.90;;;;;;4987422;28;20224;-80
2023/03/13 10:03:33;;;;;;;5.77;4.73;;;10.70;99.90;;;;;;5014612;28;20227;-79
2023/03/13 10:06:04;;;;;;;6.07;4.93;;;10.70;99.90;;;;;;4992249;28;20240;-80
2023/03/13 10:08:33;;;;;;;5.60;4.00;;;10.80;99.90;;;;;;4994961;28;20223;-80
2023/03/13 10:11:04;;;;;;;6.00;4.17;;;10.80;99.90;;;;;;4994151;28;20229;-80
2023/03/13 10:13:37;;;;;;;6.67;4.20;;;10.90;99.90;;;;;;4995960;28;20719;-80
2023/03/13 10:16:09;;;;;;;7.00;4.60;;;10.90;99.90;;;;;;4977188;28;20227;-79
2023/03/13 10:18:38;;;;;;;5.57;4.40;;;11.00;99.90;;;;;;4988420;28;20569;-79
2023/03/13 10:21:16;;;;;;;5.60;3.93;;;11.00;99.90;;;;;;4987097;28;20233;-80
2023/03/13 10:23:51;;;;;;;7.27;3.90;;;11.00;99.90;;;;;;4986720;28;20308;-79
2023/03/13 10:26:23;;;;;;;4.37;3.80;;;11.10;99.90;;;;;;4984985;28;20883;-79
2023/03/13 10:28:51;;;;;;;4.63;3.63;;;11.10;99.90;;;;;;4988423;28;20214;-80
2023/03/13 10:31:26;;;;;;;5.47;4.30;;;11.10;99.90;;;;;;4992170;28;20229;-79
2023/03/13 10:33:52;;;;;;;6.10;3.43;;;11.10;99.90;;;;;;4991280;28;20236;-79
2023/03/13 10:36:19;;;;;;;5.27;3.40;;;11.20;99.90;;;;;;4996542;28;20225;-79
2023/03/13 10:38:50;;;;;;;3.87;3.13;;;11.30;99.90;;;;;;4980018;28;20256;-80
2023/03/13 10:41:26;;;;;;;5.80;3.37;;;11.30;99.90;;;;;;4969276;28;20233;-81
2023/03/13 10:43:54;;;;;;;3.70;3.10;;;11.30;99.90;;;;;;4990103;28;20288;-81
2023/03/13 10:46:25;;;;;;;4.10;2.97;;;11.40;99.90;;;;;;5008563;28;20238;-80
2023/03/13 10:48:55;;;;;;;6.50;3.30;;;11.50;99.90;;;;;;4990920;28;20598;-81
2023/03/13 10:51:22;;;;;;;4.20;3.50;;;11.60;99.90;;;;;;4988118;28;20234;-81
2023/03/13 10:53:51;;;;;;;4.23;3.30;;;11.70;99.90;;;;;;4994582;28;20812;-80
2023/03/13 10:56:25;;;;;;;5.47;3.40;;;11.90;99.90;;;;;;4987702;28;20230;-81
2023/03/13 10:58:53;;;;;;;4.40;3.17;;;12.10;99.90;;;;;;4988703;28;20222;-81
2023/03/13 11:01:23;;;;;;;7.93;3.63;;;12.30;99.90;;;;;;5011518;28;20321;-81
2023/03/13 11:03:52;;;;;;;6.40;3.30;;;12.50;99.90;;;;;;4989314;28;20222;-81
2023/03/13 11:06:27;;;;;;;4.20;3.10;;;12.70;99.90;;;;;;4986283;28;20233;-81
2023/03/13 11:09:08;;;;;;;6.07;3.10;;;12.80;99.90;;;;;;5007655;28;20306;-82
2023/03/13 11:11:44;;;;;;;3.13;2.67;;;12.80;99.90;;;;;;4989648;28;20240;-81
2023/03/13 11:14:16;;;;;;;5.87;3.20;;;12.80;99.90;;;;;;4987352;28;20226;-82
2023/03/13 11:16:49;;;;;;;4.53;2.60;;;12.80;99.90;;;;;;4988412;28;20321;-81
2023/03/13 11:19:49;;;;;;;4.53;2.83;;;12.80;99.90;;;;;;4982708;28;20225;-82
2023/03/13 11:22:40;;;;;;;6.13;2.90;;;12.80;99.90;;;;;;4990074;28;20283;-81
2023/03/13 11:25:23;;;;;;;5.03;2.90;;;12.80;99.90;;;;;;4996219;28;20233;-82
2023/03/13 11:28:00;;;;;;;4.27;2.40;;;12.70;99.90;;;;;;4984022;28;20905;-82
2023/03/13 11:30:46;;;;;;;2.93;2.40;;;12.80;99.90;;;;;;4988708;28;20231;-81
2023/03/13 11:33:22;;;;;;;3.37;2.23;;;12.90;99.90;;;;;;4991359;28;20237;-81
2023/03/13 11:35:53;;;;;;;3.60;2.20;;;13.10;99.90;;;;;;5000732;28;20222;-81
2023/03/13 11:38:27;;;;;;;4.40;2.50;;;13.20;99.90;;;;;;4978508;28;20233;-82
2023/03/13 11:41:05;;;;;;;5.03;2.40;;;13.40;99.90;;;;;;4986602;28;20228;-81
2023/03/13 11:43:55;;;;;;;4.67;2.40;;;13.60;99.90;;;;;;5000415;28;20231;-82
2023/03/13 11:46:28;;;;;;;2.57;1.77;;;13.80;99.90;;;;;;4985402;28;20989;-81
2023/03/13 11:49:19;;;;;;;2.87;2.10;;;13.90;99.90;;;;;;4988477;28;20229;-82
2023/03/13 11:51:59;;;;;;;3.27;1.87;;;14.00;99.90;;;;;;4985080;28;20282;-81
2023/03/13 11:54:52;;;;;;;4.07;2.17;;;14.00;99.90;;;;;;4981619;28;20237;-81
2023/03/13 11:57:28;;;;;;;4.40;1.90;;;14.10;99.90;;;;;;5006872;28;20216;-81
2023/03/13 12:00:18;;;;;;;7.10;2.20;;;14.00;99.90;;;;;;4991853;28;20814;-81
2023/03/13 12:02:50;;;;;;;2.60;2.10;;;14.00;99.90;;;;;;4987466;28;20215;-81
2023/03/13 12:05:19;;;;;;;3.37;2.00;;;14.00;99.90;;;;;;4990715;28;20251;-81
2023/03/13 12:07:51;;;;;;;3.13;2.23;;;14.00;99.90;;;;;;4991155;28;20251;-81
2023/03/13 12:10:22;;;;;;;2.97;1.90;;;14.10;99.90;;;;;;4987294;28;20224;-81
2023/03/13 12:12:56;;;;;;;3.43;1.80;;;14.20;99.90;;;;;;4988809;28;20232;-81
2023/03/13 12:15:26;;;;;;;5.17;1.90;;;14.30;99.90;;;;;;4991686;28;20227;-82
2023/03/13 12:17:59;;;;;;;3.30;1.70;;;14.50;99.90;;;;;;4996917;28;20226;-82
2023/03/13 12:20:39;;;;;;;5.00;1.87;;;14.60;99.90;;;;;;4992421;28;20230;-82
2023/03/13 12:23:17;;;;;;;3.27;1.90;;;14.80;99.90;;;;;;4991116;28;20218;-81
2023/03/13 12:25:48;;;;;;;3.07;1.60;;;14.90;99.90;;;;;;4989473;28;20270;-82
2023/03/13 12:28:28;;;;;;;2.83;1.70;;;15.10;99.90;;;;;;4991895;28;20227;-82
2023/03/13 12:31:06;;;;;;;4.20;2.10;;;15.20;99.90;;;;;;4990689;28;20257;-81
2023/03/13 12:33:38;;;;;;;2.43;1.40;;;15.20;99.90;;;;;;4997486;28;20245;-81
2023/03/13 12:36:11;;;;;;;2.23;1.57;;;15.30;99.90;;;;;;4990766;28;20651;-81
2023/03/13 12:38:42;;;;;;;3.40;1.70;;;15.40;99.90;;;;;;4997976;28;20298;-81
2023/03/13 12:41:18;;;;;;;4.50;1.77;;;15.40;99.90;;;;;;4994215;28;20236;-82
2023/03/13 12:43:49;;;;;;;3.70;1.77;;;15.50;99.90;;;;;;4998093;28;20216;-83
2023/03/13 12:46:36;;;;;;;5.67;2.03;;;15.60;99.90;;;;;;4996567;28;20275;-82
2023/03/13 12:49:24;;;;;;;4.03;1.93;;;15.80;99.90;;;;;;4994831;28;20234;-81
2023/03/13 12:52:10;;;;;;;3.07;1.33;;;15.90;99.90;;;;;;4966904;28;20251;-82
2023/03/13 12:54:55;;;;;;;2.20;1.43;;;16.10;99.90;;;;;;4993437;28;20240;-82
2023/03/13 12:57:49;;;;;;;2.10;1.33;;;16.20;99.90;;;;;;4989047;28;20220;-81
2023/03/13 13:00:20;;;;;;;3.67;1.47;;;16.30;99.90;;;;;;4990234;28;20224;-82
2023/03/13 13:02:48;;;;;;;4.17;1.77;;;16.30;99.90;;;;;;4986337;28;20250;-81
2023/03/13 13:05:20;;;;;;;3.43;1.50;;;16.40;99.90;;;;;;4991836;28;20233;-81
2023/03/13 13:07:53;;;;;;;5.37;1.50;;;16.30;99.90;;;;;;4988936;28;20228;-81
2023/03/13 13:10:24;;;;;;;3.17;1.47;;;16.40;99.90;;;;;;4997115;28;20240;-85
2023/03/13 13:13:18;;;;;;;5.30;1.33;;;16.40;99.90;;;;;;4988676;28;20225;-83